createdAt,value
2019-05-19T00:01:24.450Z,100949.08
2019-05-19T00:03:54.858Z,100956.16
2019-05-19T00:06:23.770Z,100957.52
2019-05-19T00:08:53.453Z,100959.66
2019-05-19T00:11:24.111Z,100959.61
2019-05-19T00:13:52.960Z,100958.20
2019-05-19T00:16:21.862Z,100957.61
2019-05-19T00:18:50.666Z,100960.81
2019-05-19T00:21:22.518Z,100959.09
2019-05-19T00:23:51.446Z,100950.89
2019-05-19T00:26:21.897Z,100963.95
2019-05-19T00:28:53.137Z,100960.88
2019-05-19T00:31:23.447Z,100956.48
2019-05-19T00:33:52.348Z,100957.53
2019-05-19T00:36:21.151Z,100961.33
2019-05-19T00:38:51.432Z,100959.09
2019-05-19T00:41:20.369Z,100955.52
2019-05-19T00:43:49.464Z,100954.44
2019-05-19T00:46:18.308Z,100956.05
2019-05-19T00:48:48.026Z,100948.38
2019-05-19T00:51:18.632Z,100944.56
2019-05-19T00:53:50.957Z,100951.64
2019-05-19T00:56:25.981Z,100952.47
2019-05-19T00:58:59.444Z,100956.28
2019-05-19T01:01:28.252Z,100956.27
2019-05-19T01:03:57.692Z,100953.54
2019-05-19T01:06:26.897Z,100953.54
2019-05-19T01:08:57.921Z,100951.63
2019-05-19T01:11:26.728Z,100957.89
2019-05-19T01:13:55.850Z,100955.99
2019-05-19T01:16:24.728Z,100956.58
2019-05-19T01:18:53.585Z,100954.44
2019-05-19T01:21:22.866Z,100953.62
2019-05-19T01:23:52.817Z,100958.61
2019-05-19T01:26:21.723Z,100951.79
2019-05-19T01:28:52.006Z,100954.00
2019-05-19T01:31:20.925Z,100952.13
2019-05-19T01:33:49.727Z,100953.76
2019-05-19T01:36:19.975Z,100954.34
2019-05-19T01:38:49.462Z,100954.64
2019-05-19T01:41:18.337Z,100960.12
2019-05-19T01:43:51.162Z,100956.91
2019-05-19T01:46:19.962Z,100952.32
2019-05-19T01:48:48.826Z,100949.31
2019-05-19T01:51:17.650Z,100950.14
2019-05-19T01:53:47.567Z,100950.42
2019-05-19T01:56:16.374Z,100953.16
2019-05-19T01:58:45.799Z,100949.89
2019-05-19T02:01:14.675Z,100955.36
2019-05-19T02:03:43.531Z,100950.48
2019-05-19T02:06:19.555Z,100958.96
2019-05-19T02:08:52.272Z,100964.13
2019-05-19T02:11:21.128Z,100969.02
2019-05-19T02:13:49.981Z,100973.64
2019-05-19T02:16:18.862Z,100969.00
2019-05-19T02:18:47.690Z,100974.47
2019-05-19T02:21:16.500Z,100974.70
2019-05-19T02:23:48.613Z,100974.12
2019-05-19T02:26:20.617Z,100974.38
2019-05-19T02:28:49.485Z,100971.09
2019-05-19T02:31:18.302Z,100970.50
2019-05-19T02:33:48.315Z,100973.77
2019-05-19T02:36:23.637Z,100977.33
2019-05-19T02:38:52.445Z,100978.16
2019-05-19T02:41:22.986Z,100977.33
2019-05-19T02:43:59.615Z,100969.97
2019-05-19T02:46:30.029Z,100971.09
2019-05-19T02:49:00.820Z,100969.73
2019-05-19T02:51:31.645Z,100969.77
2019-05-19T02:54:02.149Z,100967.05
2019-05-19T02:56:32.225Z,100963.55
2019-05-19T02:59:03.387Z,100960.83
2019-05-19T03:01:36.661Z,100957.31
2019-05-19T03:04:09.408Z,100960.34
2019-05-19T03:06:38.279Z,100957.66
2019-05-19T03:09:10.224Z,100960.69
2019-05-19T03:11:42.416Z,100958.02
2019-05-19T03:14:11.257Z,100964.64
2019-05-19T03:16:40.083Z,100960.31
2019-05-19T03:19:14.568Z,100965.20
2019-05-19T03:21:43.429Z,100965.48
2019-05-19T03:24:15.000Z,100965.73
2019-05-19T03:26:44.611Z,100957.28
2019-05-19T03:29:24.031Z,100955.34
2019-05-19T03:32:21.566Z,100950.40
2019-05-19T03:34:51.543Z,100956.36
2019-05-19T03:37:20.347Z,100966.98
2019-05-19T03:39:49.605Z,100969.41
2019-05-19T03:42:19.184Z,100968.58
2019-05-19T03:44:50.934Z,100974.58
2019-05-19T03:47:19.843Z,100971.55
2019-05-19T03:49:55.549Z,100968.25
2019-05-19T03:52:28.375Z,100969.36
2019-05-19T03:54:58.331Z,100966.09
2019-05-19T03:57:27.131Z,100963.67
2019-05-19T03:59:56.026Z,100959.37
2019-05-19T04:02:26.421Z,100963.75
2019-05-19T04:04:55.237Z,100972.19
2019-05-19T04:07:25.182Z,100966.40
2019-05-19T04:09:55.466Z,100971.56
2019-05-19T04:12:24.337Z,100967.16
2019-05-19T04:14:53.590Z,100969.59
2019-05-19T04:17:22.804Z,100970.38
2019-05-19T04:19:53.694Z,100978.03
2019-05-19T04:22:24.157Z,100976.37
2019-05-19T04:24:55.073Z,100977.98
2019-05-19T04:27:23.921Z,100980.72
2019-05-19T04:29:55.613Z,100982.37
2019-05-19T04:32:24.416Z,100978.52
2019-05-19T04:34:53.291Z,100976.08
2019-05-19T04:37:24.350Z,100973.64
2019-05-19T04:39:56.216Z,100974.48
2019-05-19T04:42:25.098Z,100970.14
2019-05-19T04:44:57.203Z,100979.98
2019-05-19T04:47:26.005Z,100979.70
2019-05-19T04:49:59.604Z,100975.08
2019-05-19T04:52:30.787Z,100982.48
2019-05-19T04:55:40.586Z,100985.20
2019-05-19T04:58:12.103Z,100977.27
2019-05-19T05:00:48.253Z,100977.27
2019-05-19T05:03:22.222Z,100982.44
2019-05-19T05:05:52.720Z,100982.44
2019-05-19T05:08:30.354Z,100976.44
2019-05-19T05:10:54.881Z,100975.41
2019-05-19T05:13:23.793Z,100982.48
2019-05-19T05:15:54.436Z,100983.84
2019-05-19T05:18:23.256Z,100983.56
2019-05-19T05:20:52.193Z,100983.56
2019-05-19T05:23:27.222Z,100987.11
2019-05-19T05:25:56.012Z,100986.00
2019-05-19T05:28:26.534Z,100980.54
2019-05-19T05:30:55.351Z,100984.63
2019-05-19T05:33:24.211Z,100985.75
2019-05-19T05:35:53.082Z,100987.64
2019-05-19T05:38:28.458Z,100990.91
2019-05-19T05:40:57.346Z,100993.89
2019-05-19T05:43:29.054Z,100992.81
2019-05-19T05:45:57.869Z,100997.16
2019-05-19T05:48:27.327Z,100994.14
2019-05-19T05:50:56.126Z,100992.48
2019-05-19T05:53:29.277Z,100998.76
2019-05-19T05:56:00.060Z,101002.56
2019-05-19T05:58:29.805Z,100998.27
2019-05-19T06:00:58.637Z,101003.50
2019-05-19T06:03:28.827Z,101007.94
2019-05-19T06:05:57.715Z,101001.94
2019-05-19T06:08:26.554Z,101004.62
2019-05-19T06:10:55.421Z,101004.33
2019-05-19T06:13:29.277Z,101014.95
2019-05-19T06:16:01.406Z,101020.09
2019-05-19T06:18:30.248Z,101011.34
2019-05-19T06:20:59.273Z,101011.59
2019-05-19T06:23:28.200Z,101010.18
2019-05-19T06:25:57.049Z,101009.34
2019-05-19T06:28:26.777Z,101014.75
2019-05-19T06:30:58.360Z,101013.37
2019-05-19T06:33:27.162Z,101015.00
2019-05-19T06:35:56.035Z,101017.43
2019-05-19T06:38:24.975Z,101017.97
2019-05-19T06:40:53.891Z,101018.50
2019-05-19T06:43:25.139Z,101015.23
2019-05-19T06:45:54.039Z,101020.94
2019-05-19T06:48:22.867Z,101021.76
2019-05-19T06:50:51.758Z,101022.25
2019-05-19T06:53:22.671Z,101020.87
2019-05-19T06:55:52.609Z,101022.77
2019-05-19T06:58:21.494Z,101027.94
2019-05-19T07:00:50.315Z,101029.07
2019-05-19T07:03:19.277Z,101033.17
2019-05-19T07:05:48.234Z,101034.23
2019-05-19T07:08:19.284Z,101037.75
2019-05-19T07:10:48.245Z,101028.16
2019-05-19T07:13:17.197Z,101035.55
2019-05-19T07:15:46.191Z,101030.90
2019-05-19T07:18:17.375Z,101036.62
2019-05-19T07:20:46.254Z,101038.52
2019-05-19T07:23:27.217Z,101036.80
2019-05-19T07:25:46.809Z,101038.62
2019-05-19T07:28:15.665Z,101038.49
2019-05-19T07:30:52.139Z,101043.03
2019-05-19T07:33:23.071Z,101042.66
2019-05-19T07:35:51.943Z,101048.02
2019-05-19T07:38:22.309Z,101046.05
2019-05-19T07:40:51.122Z,101043.02
2019-05-19T07:43:20.326Z,101045.17
2019-05-19T07:45:49.312Z,101049.76
2019-05-19T07:48:20.501Z,101048.55
2019-05-19T07:50:49.344Z,101047.31
2019-05-19T07:53:21.157Z,101049.95
2019-05-19T07:55:50.060Z,101046.86
2019-05-19T07:58:18.873Z,101046.78
2019-05-19T08:00:49.572Z,101050.54
2019-05-19T08:03:18.532Z,101047.13
2019-05-19T08:05:47.784Z,101052.41
2019-05-19T08:08:18.443Z,101057.45
2019-05-19T08:10:49.889Z,101056.55
2019-05-19T08:13:18.754Z,101067.95
2019-05-19T08:15:48.524Z,101064.59
2019-05-19T08:18:17.352Z,101069.23
2019-05-19T08:20:46.292Z,101069.75
2019-05-19T08:23:15.146Z,101077.42
2019-05-19T08:25:45.546Z,101075.64
2019-05-19T08:28:14.525Z,101071.16
2019-05-19T08:30:44.811Z,101075.34
2019-05-19T08:33:15.159Z,101082.98
2019-05-19T08:35:43.995Z,101075.34
2019-05-19T08:38:12.823Z,101092.09
2019-05-19T08:40:43.021Z,101089.12
2019-05-19T08:43:12.705Z,101087.16
2019-05-19T08:45:45.545Z,101080.50
2019-05-19T08:48:14.454Z,101087.82
2019-05-19T08:50:45.883Z,101088.03
2019-05-19T08:53:18.029Z,101098.48
2019-05-19T08:55:48.399Z,101101.81
2019-05-19T08:58:17.289Z,101106.01
2019-05-19T09:00:50.402Z,101105.70
2019-05-19T09:03:24.137Z,101100.23
2019-05-19T09:05:53.744Z,101104.80
2019-05-19T09:08:22.599Z,101102.29
2019-05-19T09:10:53.834Z,101108.29
2019-05-19T09:13:22.650Z,101112.31
2019-05-19T09:15:55.109Z,101110.34
2019-05-19T09:18:23.946Z,101108.40
2019-05-19T09:20:52.784Z,101111.38
2019-05-19T09:23:21.672Z,101108.55
2019-05-19T09:25:52.227Z,101111.81
2019-05-19T09:28:21.016Z,101113.25
2019-05-19T09:30:50.025Z,101104.53
2019-05-19T09:33:19.794Z,101101.87
2019-05-19T09:35:49.127Z,101103.77
2019-05-19T09:38:17.964Z,101108.62
2019-05-19T09:40:46.862Z,101108.11
2019-05-19T09:43:25.845Z,101101.01
2019-05-19T09:45:57.838Z,101101.03
2019-05-19T09:48:30.255Z,101100.19
2019-05-19T09:51:00.734Z,101110.39
2019-05-19T09:53:29.682Z,101111.52
2019-05-19T09:56:00.607Z,101108.91
2019-05-19T09:58:30.213Z,101106.18
2019-05-19T10:00:59.643Z,101110.59
2019-05-19T10:03:28.509Z,101108.13
2019-05-19T10:06:02.502Z,101107.63
2019-05-19T10:08:37.828Z,101107.50
2019-05-19T10:11:29.387Z,101103.02
2019-05-19T10:13:58.286Z,101099.97
2019-05-19T10:16:29.781Z,101101.37
2019-05-19T10:18:58.570Z,101098.39
2019-05-19T10:21:27.433Z,101103.53
2019-05-19T10:23:56.351Z,101093.12
2019-05-19T10:26:26.797Z,101100.14
2019-05-19T10:28:58.456Z,101098.86
2019-05-19T10:31:27.475Z,101094.55
2019-05-19T10:33:56.322Z,101099.17
2019-05-19T10:36:26.823Z,101096.38
2019-05-19T10:38:55.858Z,101093.31
2019-05-19T10:41:30.784Z,101100.94
2019-05-19T10:44:05.631Z,101105.05
2019-05-19T10:46:34.632Z,101102.07
2019-05-19T10:49:05.958Z,101094.33
2019-05-19T10:51:34.787Z,101098.88
2019-05-19T10:54:05.347Z,101099.84
2019-05-19T10:56:36.501Z,101095.81
2019-05-19T10:59:05.467Z,101100.46
2019-05-19T11:01:34.356Z,101098.51
2019-05-19T11:04:04.648Z,101091.45
2019-05-19T11:06:33.484Z,101099.52
2019-05-19T11:09:02.298Z,101104.56
2019-05-19T11:11:31.139Z,101098.23
2019-05-19T11:13:59.998Z,101095.57
2019-05-19T11:16:28.960Z,101101.71
2019-05-19T11:18:57.752Z,101105.20
2019-05-19T11:21:27.422Z,101103.19
2019-05-19T11:24:03.376Z,101106.71
2019-05-19T11:26:33.185Z,101107.82
2019-05-19T11:29:08.782Z,101107.39
2019-05-19T11:31:39.077Z,101111.34
2019-05-19T11:34:07.990Z,101119.82
2019-05-19T11:36:37.437Z,101119.14
2019-05-19T11:39:11.384Z,101124.78
2019-05-19T11:41:45.179Z,101126.26
2019-05-19T11:44:14.284Z,101123.83
2019-05-19T11:46:46.041Z,101135.47
2019-05-19T11:49:18.002Z,101130.33
2019-05-19T11:51:47.136Z,101131.88
2019-05-19T11:54:21.501Z,101129.27
2019-05-19T11:56:57.007Z,101127.38
2019-05-19T11:59:26.987Z,101130.45
2019-05-19T12:01:55.891Z,101137.32
2019-05-19T12:04:25.375Z,101137.52
2019-05-19T12:07:00.048Z,101137.70
2019-05-19T12:09:32.233Z,101142.09
2019-05-19T12:12:01.124Z,101146.22
2019-05-19T12:14:34.167Z,101147.09
2019-05-19T12:17:03.093Z,101146.59
2019-05-19T12:19:35.722Z,101147.69
2019-05-19T12:22:04.718Z,101145.72
2019-05-19T12:24:33.506Z,101148.15
2019-05-19T12:27:13.527Z,101147.20
2019-05-19T12:29:42.436Z,101152.28
2019-05-19T12:32:18.041Z,101148.20
2019-05-19T12:34:50.178Z,101149.34
2019-05-19T12:37:18.975Z,101152.09
2019-05-19T12:39:50.840Z,101156.41
2019-05-19T12:42:22.508Z,101152.70
2019-05-19T12:44:54.679Z,101148.35
2019-05-19T12:47:32.009Z,101151.84
2019-05-19T12:50:04.963Z,101150.47
2019-05-19T12:52:33.911Z,101150.47
2019-05-19T12:55:06.087Z,101155.19
2019-05-19T12:57:34.875Z,101153.44
2019-05-19T13:00:18.766Z,101146.55
2019-05-19T13:02:47.554Z,101152.20
2019-05-19T13:05:19.215Z,101140.56
2019-05-19T13:07:52.216Z,101154.59
2019-05-19T13:10:21.174Z,101154.05
2019-05-19T13:12:52.929Z,101148.22
2019-05-19T13:15:24.783Z,101153.58
2019-05-19T13:17:53.769Z,101153.60
2019-05-19T13:20:22.732Z,101158.77
2019-05-19T13:25:31.329Z,101151.83
2019-05-19T13:28:00.203Z,101158.80
2019-05-19T13:30:29.028Z,101147.20
2019-05-19T13:32:58.039Z,101157.95
2019-05-19T13:35:26.882Z,101157.41
2019-05-19T13:37:59.147Z,101153.11
2019-05-19T13:40:30.210Z,101160.46
2019-05-19T13:42:59.088Z,101153.77
2019-05-19T13:45:27.962Z,101157.90
2019-05-19T13:47:56.839Z,101154.41
2019-05-19T13:50:28.704Z,101155.86
2019-05-19T13:52:57.725Z,101153.80
2019-05-19T13:55:26.643Z,101151.22
2019-05-19T13:57:55.451Z,101156.58
2019-05-19T14:00:24.284Z,101158.08
2019-05-19T14:02:53.072Z,101148.30
2019-05-19T14:05:21.952Z,101150.62
2019-05-19T14:07:50.740Z,101148.42
2019-05-19T14:10:19.596Z,101147.09
2019-05-19T14:12:48.576Z,101143.88
2019-05-19T14:15:17.544Z,101149.23
2019-05-19T14:17:46.940Z,101150.09
2019-05-19T14:20:16.286Z,101145.19
2019-05-19T14:22:45.148Z,101146.67
2019-05-19T14:25:15.389Z,101143.58
2019-05-19T14:27:44.262Z,101142.91
2019-05-19T14:30:13.787Z,101139.17
2019-05-19T14:32:42.632Z,101141.66
2019-05-19T14:35:12.406Z,101148.59
2019-05-19T14:37:42.804Z,101147.70
2019-05-19T14:40:13.275Z,101143.78
2019-05-19T14:43:06.851Z,101147.81
2019-05-19T14:45:35.693Z,101148.80
2019-05-19T14:48:05.117Z,101145.82
2019-05-19T14:50:35.219Z,101151.67
2019-05-19T14:53:04.064Z,101161.28
2019-05-19T14:55:35.806Z,101156.92
2019-05-19T14:58:04.682Z,101159.67
2019-05-19T15:00:33.549Z,101163.80
2019-05-19T15:03:03.567Z,101154.73
2019-05-19T15:05:32.359Z,101162.66
2019-05-19T15:08:01.747Z,101152.53
2019-05-19T15:10:30.540Z,101159.47
2019-05-19T15:13:02.277Z,101155.66
2019-05-19T15:15:31.096Z,101151.89
2019-05-19T15:17:59.876Z,101151.63
2019-05-19T15:20:28.758Z,101149.34
2019-05-19T15:22:57.616Z,101154.77
2019-05-19T15:25:26.483Z,101149.55
2019-05-19T15:28:00.309Z,101154.17
2019-05-19T15:30:31.223Z,101145.66
2019-05-19T15:32:59.995Z,101148.68
2019-05-19T15:35:28.864Z,101145.97
2019-05-19T15:37:57.713Z,101148.72
2019-05-19T15:40:26.508Z,101152.91
2019-05-19T15:42:55.907Z,101150.01
2019-05-19T15:45:24.847Z,101156.28
2019-05-19T15:47:53.652Z,101153.44
2019-05-19T15:50:22.852Z,101147.23
2019-05-19T15:52:54.591Z,101141.22
2019-05-19T15:55:28.803Z,101152.24
2019-05-19T15:58:15.607Z,101154.78
2019-05-19T16:00:31.246Z,101154.06
2019-05-19T16:03:05.640Z,101152.45
2019-05-19T16:05:36.124Z,101148.23
2019-05-19T16:08:04.909Z,101150.77
2019-05-19T16:10:33.722Z,101153.56
2019-05-19T16:13:02.536Z,101156.20
2019-05-19T16:15:31.356Z,101157.03
2019-05-19T16:18:00.755Z,101159.53
2019-05-19T16:20:31.958Z,101157.34
2019-05-19T16:23:00.830Z,101159.06
2019-05-19T16:25:33.394Z,101150.27
2019-05-19T16:28:02.254Z,101152.39
2019-05-19T16:30:33.137Z,101156.79
2019-05-19T16:33:02.013Z,101160.70
2019-05-19T16:35:30.795Z,101159.92
2019-05-19T16:37:59.662Z,101148.69
2019-05-19T16:40:29.008Z,101148.94
2019-05-19T16:43:05.558Z,101139.01
2019-05-19T16:45:37.012Z,101145.84
2019-05-19T16:48:05.880Z,101153.77
2019-05-19T16:50:34.707Z,101154.59
2019-05-19T16:53:20.709Z,101149.09
2019-05-19T16:55:52.761Z,101143.36
2019-05-19T16:58:44.375Z,101137.87
2019-05-19T17:01:03.340Z,101139.48
2019-05-19T17:03:33.971Z,101142.23
2019-05-19T17:06:02.832Z,101145.33
2019-05-19T17:08:31.629Z,101144.41
2019-05-19T17:11:01.999Z,101143.38
2019-05-19T17:13:30.890Z,101140.95
2019-05-19T17:16:01.444Z,101144.42
2019-05-19T17:18:31.918Z,101139.03
2019-05-19T17:21:03.978Z,101137.66
2019-05-19T17:23:32.881Z,101143.94
2019-05-19T17:26:01.733Z,101140.09
2019-05-19T17:28:36.872Z,101137.66
2019-05-19T17:31:08.021Z,101138.97
2019-05-19T17:33:41.741Z,101140.41
2019-05-19T17:36:11.756Z,101139.41
2019-05-19T17:38:41.228Z,101141.95
2019-05-19T17:41:10.062Z,101139.48
2019-05-19T17:43:41.006Z,101134.84
2019-05-19T17:46:12.343Z,101147.48
2019-05-19T17:48:41.143Z,101146.66
2019-05-19T17:51:11.108Z,101145.83
2019-05-19T17:53:39.897Z,101147.75
2019-05-19T17:56:08.739Z,101154.09
2019-05-19T17:58:38.475Z,101148.67
2019-05-19T18:01:07.349Z,101152.03
2019-05-19T18:03:36.957Z,101153.75
2019-05-19T18:06:09.008Z,101157.86
2019-05-19T18:08:40.275Z,101151.25
2019-05-19T18:11:10.944Z,101157.02
2019-05-19T18:13:51.365Z,101159.48
2019-05-19T18:16:23.505Z,101164.52
2019-05-19T18:18:55.336Z,101165.25
2019-05-19T18:21:27.900Z,101169.43
2019-05-19T18:23:58.942Z,101174.44
2019-05-19T18:26:30.986Z,101176.69
2019-05-19T18:29:03.802Z,101174.34
2019-05-19T18:31:42.231Z,101175.52
2019-05-19T18:34:12.129Z,101179.12
2019-05-19T18:36:41.026Z,101184.91
2019-05-19T18:39:13.245Z,101197.64
2019-05-19T18:41:46.434Z,101185.98
2019-05-19T18:44:15.213Z,101194.34
2019-05-19T18:46:50.739Z,101188.91
2019-05-19T18:49:21.575Z,101182.66
2019-05-19T18:51:54.668Z,101190.64
2019-05-19T18:54:26.272Z,101193.09
2019-05-19T18:56:55.086Z,101193.41
2019-05-19T18:59:23.940Z,101193.42
2019-05-19T19:01:52.844Z,101189.37
2019-05-19T19:04:22.195Z,101187.77
2019-05-19T19:06:52.050Z,101203.99
2019-05-19T19:09:22.489Z,101194.14
2019-05-19T19:11:54.466Z,101196.91
2019-05-19T19:14:27.521Z,101191.20
2019-05-19T19:16:57.031Z,101201.69
2019-05-19T19:19:28.245Z,101206.96
2019-05-19T19:21:57.050Z,101210.56
2019-05-19T19:24:25.902Z,101202.41
2019-05-19T19:26:58.053Z,101208.20
2019-05-19T19:29:30.426Z,101207.44
2019-05-19T19:32:01.243Z,101213.52
2019-05-19T19:34:30.128Z,101215.25
2019-05-19T19:36:58.938Z,101209.84
2019-05-19T19:39:30.799Z,101215.34
2019-05-19T19:42:01.905Z,101206.11
2019-05-19T19:44:33.721Z,101211.88
2019-05-19T19:47:02.503Z,101217.09
2019-05-19T19:49:31.337Z,101219.33
2019-05-19T19:52:00.723Z,101225.64
2019-05-19T19:54:29.661Z,101228.67
2019-05-19T19:57:00.931Z,101227.02
2019-05-19T19:59:29.791Z,101224.58
2019-05-19T20:02:03.688Z,101237.73
2019-05-19T20:04:32.555Z,101238.04
2019-05-19T20:07:06.664Z,101236.78
2019-05-19T20:09:35.474Z,101238.22
2019-05-19T20:12:04.384Z,101239.09
2019-05-19T20:14:34.280Z,101236.61
2019-05-19T20:17:03.132Z,101240.47
2019-05-19T20:19:34.780Z,101246.27
2019-05-19T20:22:06.646Z,101243.27
2019-05-19T20:24:35.455Z,101247.13
2019-05-19T20:27:07.575Z,101251.23
2019-05-19T20:29:36.386Z,101248.79
2019-05-19T20:32:06.548Z,101254.27
2019-05-19T20:34:42.831Z,101253.44
2019-05-19T20:37:15.302Z,101242.79
2019-05-19T20:39:48.546Z,101251.28
2019-05-19T20:42:18.180Z,101253.48
2019-05-19T20:44:50.989Z,101252.95
2019-05-19T20:47:28.357Z,101252.16
2019-05-19T20:49:59.249Z,101251.58
2019-05-19T20:52:28.129Z,101259.24
2019-05-19T20:54:57.981Z,101261.73
2019-05-19T20:57:30.871Z,101251.33
2019-05-19T21:00:00.512Z,101249.72
2019-05-19T21:02:31.871Z,101254.40
2019-05-19T21:05:03.511Z,101258.25
2019-05-19T21:07:33.506Z,101252.54
2019-05-19T21:10:02.315Z,101244.13
2019-05-19T21:12:41.632Z,101246.11
2019-05-19T21:15:19.681Z,101242.88
2019-05-19T21:17:48.891Z,101252.47
2019-05-19T21:20:20.006Z,101248.41
2019-05-19T21:22:51.188Z,101251.67
2019-05-19T21:25:33.276Z,101254.16
2019-05-19T21:28:03.691Z,101251.16
2019-05-19T21:31:11.918Z,101244.08
2019-05-19T21:33:42.590Z,101254.20
2019-05-19T21:36:16.431Z,101253.38
2019-05-19T21:38:45.242Z,101251.73
2019-05-19T21:41:16.877Z,101258.56
2019-05-19T21:43:51.144Z,101255.00
2019-05-19T21:46:30.798Z,101254.72
2019-05-19T21:49:00.672Z,101259.67
2019-05-19T21:51:30.531Z,101258.56
2019-05-19T21:54:00.995Z,101261.58
2019-05-19T21:56:29.806Z,101271.95
2019-05-19T21:59:01.365Z,101261.34
2019-05-19T22:01:33.763Z,101269.54
2019-05-19T22:04:09.048Z,101268.43
2019-05-19T22:06:43.496Z,101262.42
2019-05-19T22:09:12.303Z,101265.70
2019-05-19T22:11:46.835Z,101267.06
2019-05-19T22:14:17.343Z,101263.22
2019-05-19T22:16:46.137Z,101268.97
2019-05-19T22:19:15.973Z,101273.61
2019-05-19T22:21:47.257Z,101276.59
2019-05-19T22:24:18.456Z,101274.98
2019-05-19T22:26:47.288Z,101283.72
2019-05-19T22:29:16.223Z,101277.42
2019-05-19T22:31:49.551Z,101283.17
2019-05-19T22:34:18.376Z,101282.62
2019-05-19T22:36:51.476Z,101283.20
2019-05-19T22:39:20.306Z,101281.82
2019-05-19T22:41:52.363Z,101278.84
2019-05-19T22:44:30.075Z,101282.93
2019-05-19T22:47:05.941Z,101278.28
2019-05-19T22:49:34.796Z,101279.39
2019-05-19T22:52:07.888Z,101285.98
2019-05-19T22:54:38.857Z,101280.80
2019-05-19T22:57:07.688Z,101280.54
2019-05-19T22:59:36.874Z,101274.48
2019-05-19T23:02:09.361Z,101280.25
2019-05-19T23:04:38.352Z,101282.99
2019-05-19T23:07:08.953Z,101282.44
2019-05-19T23:09:37.818Z,101283.01
2019-05-19T23:12:09.274Z,101278.89
2019-05-19T23:14:38.316Z,101285.43
2019-05-19T23:17:09.180Z,101276.70
2019-05-19T23:19:38.037Z,101275.89
2019-05-19T23:22:06.823Z,101280.00
2019-05-19T23:24:35.645Z,101279.73
2019-05-19T23:27:09.991Z,101279.73
2019-05-19T23:29:46.943Z,101277.27
2019-05-19T23:32:20.003Z,101272.61
2019-05-19T23:34:49.741Z,101272.91
2019-05-19T23:37:18.607Z,101272.91
2019-05-19T23:39:47.442Z,101274.81
2019-05-19T23:42:16.859Z,101276.69
2019-05-19T23:44:48.996Z,101278.05
2019-05-19T23:47:19.088Z,101276.98
2019-05-19T23:49:49.748Z,101275.33
2019-05-19T23:52:18.590Z,101278.91
2019-05-19T23:54:50.016Z,101281.88
2019-05-19T23:57:20.886Z,101283.53
2019-05-19T23:59:50.520Z,101285.17
